Mision Tacaagle, Argentina
Current Conditions -  °F | °C
As of 6:00 AM on Sunday 26 Oct 2014 (Local Time) from SGAS Reporting Station
Clear Clear  
Wind Chill: 70°   Ceiling: Unl
Heat Index: 70°   Visibility: 6mi
Dew Point: 64°   Wind: 0mph
Humidity: 83%   Direction: NA
Pressure: 29.8"   Gusts: NA
Location:  24.93°S, 58.77°W
Report Text: SGAS 260900Z 00000KT 9000 NSC 21/18 Q1009
Loading
Personal Weather Stations






























Interactive Weather Map
Tropical Storm Tracking
New forecast layout! Learn more

10-Day Weather Forecast

Advertisements
Track Severe Weather on mobile